sensor_id;sensor_type;location;lat;lon;timestamp;pressure;altitude;pressure_sealevel;temperature;humidity
57600;BME280;43426;43.594;24.334;2023-04-29T00:02:12;101315.88;;;4.95;88.93
57600;BME280;43426;43.594;24.334;2023-04-29T00:04:38;101291.34;;;4.90;88.80
57600;BME280;43426;43.594;24.334;2023-04-29T00:07:03;101315.41;;;5.02;89.08
57600;BME280;43426;43.594;24.334;2023-04-29T00:09:28;101311.16;;;4.99;89.13
57600;BME280;43426;43.594;24.334;2023-04-29T00:11:54;101309.06;;;4.91;89.06
57600;BME280;43426;43.594;24.334;2023-04-29T00:14:19;101300.47;;;4.99;88.99
57600;BME280;43426;43.594;24.334;2023-04-29T00:16:45;101308.34;;;5.01;89.24
57600;BME280;43426;43.594;24.334;2023-04-29T00:19:11;101267.88;;;4.83;89.00
57600;BME280;43426;43.594;24.334;2023-04-29T00:21:37;101300.81;;;5.06;89.01
57600;BME280;43426;43.594;24.334;2023-04-29T00:24:02;101294.50;;;4.95;89.21
57600;BME280;43426;43.594;24.334;2023-04-29T00:26:28;101291.22;;;4.92;89.25
57600;BME280;43426;43.594;24.334;2023-04-29T00:28:53;101290.97;;;4.84;89.81
57600;BME280;43426;43.594;24.334;2023-04-29T00:31:18;101293.91;;;4.92;89.88
57600;BME280;43426;43.594;24.334;2023-04-29T00:33:44;101287.69;;;4.91;89.70
57600;BME280;43426;43.594;24.334;2023-04-29T00:36:10;101299.38;;;4.90;89.96
57600;BME280;43426;43.594;24.334;2023-04-29T00:38:35;101287.78;;;4.78;89.77
57600;BME280;43426;43.594;24.334;2023-04-29T00:41:01;101293.25;;;4.66;90.27
57600;BME280;43426;43.594;24.334;2023-04-29T00:43:27;101270.72;;;4.46;91.71
57600;BME280;43426;43.594;24.334;2023-04-29T00:45:52;101299.19;;;4.58;91.97
57600;BME280;43426;43.594;24.334;2023-04-29T00:48:18;101288.63;;;4.56;92.05
57600;BME280;43426;43.594;24.334;2023-04-29T00:50:44;101305.41;;;4.58;92.31
57600;BME280;43426;43.594;24.334;2023-04-29T00:53:11;101271.34;;;4.38;92.75
57600;BME280;43426;43.594;24.334;2023-04-29T00:55:37;101286.44;;;4.50;93.00
57600;BME280;43426;43.594;24.334;2023-04-29T00:58:03;101294.59;;;4.60;92.46
57600;BME280;43426;43.594;24.334;2023-04-29T01:00:29;101292.50;;;4.64;92.59
57600;BME280;43426;43.594;24.334;2023-04-29T01:02:55;101307.00;;;4.61;92.45
57600;BME280;43426;43.594;24.334;2023-04-29T01:05:22;101303.41;;;4.49;92.70
57600;BME280;43426;43.594;24.334;2023-04-29T01:10:47;101295.28;;;4.51;93.54
57600;BME280;43426;43.594;24.334;2023-04-29T01:13:23;101263.31;;;4.38;93.50
57600;BME280;43426;43.594;24.334;2023-04-29T01:16:00;101285.22;;;4.54;93.25
57600;BME280;43426;43.594;24.334;2023-04-29T01:18:33;101262.97;;;4.42;93.09
57600;BME280;43426;43.594;24.334;2023-04-29T01:21:01;101288.59;;;4.45;93.37
57600;BME280;43426;43.594;24.334;2023-04-29T01:23:30;101281.66;;;4.42;93.57
57600;BME280;43426;43.594;24.334;2023-04-29T01:25:56;101292.63;;;4.51;92.77
57600;BME280;43426;43.594;24.334;2023-04-29T01:28:39;101282.75;;;4.40;92.83
57600;BME280;43426;43.594;24.334;2023-04-29T01:31:07;101282.03;;;4.38;93.06
57600;BME280;43426;43.594;24.334;2023-04-29T01:39:45;101273.22;;;4.24;92.96
57600;BME280;43426;43.594;24.334;2023-04-29T01:42:38;101275.06;;;4.24;93.77
57600;BME280;43426;43.594;24.334;2023-04-29T01:45:07;101240.25;;;4.01;94.30
57600;BME280;43426;43.594;24.334;2023-04-29T01:47:35;101269.59;;;4.25;94.40
57600;BME280;43426;43.594;24.334;2023-04-29T01:50:01;101266.44;;;4.32;94.26
57600;BME280;43426;43.594;24.334;2023-04-29T01:52:27;101263.06;;;4.41;94.39
57600;BME280;43426;43.594;24.334;2023-04-29T01:54:53;101271.06;;;4.30;94.25
57600;BME280;43426;43.594;24.334;2023-04-29T01:57:18;101269.34;;;4.29;94.41
57600;BME280;43426;43.594;24.334;2023-04-29T01:59:43;101256.50;;;4.34;94.92
57600;BME280;43426;43.594;24.334;2023-04-29T02:02:09;101270.25;;;4.40;94.50
57600;BME280;43426;43.594;24.334;2023-04-29T02:04:34;101244.69;;;4.25;94.40
57600;BME280;43426;43.594;24.334;2023-04-29T02:06:59;101266.94;;;4.37;94.18
57600;BME280;43426;43.594;24.334;2023-04-29T02:09:26;101274.84;;;4.38;94.32
57600;BME280;43426;43.594;24.334;2023-04-29T02:11:51;101233.13;;;4.13;94.15
57600;BME280;43426;43.594;24.334;2023-04-29T02:14:17;101277.91;;;4.45;94.25
57600;BME280;43426;43.594;24.334;2023-04-29T02:16:45;101271.94;;;4.41;93.83
57600;BME280;43426;43.594;24.334;2023-04-29T02:19:10;101265.97;;;4.26;93.87
57600;BME280;43426;43.594;24.334;2023-04-29T02:21:36;101297.69;;;4.42;93.68
57600;BME280;43426;43.594;24.334;2023-04-29T02:24:04;101301.19;;;4.32;94.10
57600;BME280;43426;43.594;24.334;2023-04-29T02:26:29;101293.19;;;4.43;93.87
57600;BME280;43426;43.594;24.334;2023-04-29T02:28:55;101283.22;;;4.34;93.91
57600;BME280;43426;43.594;24.334;2023-04-29T02:31:21;101292.19;;;4.33;94.33
57600;BME280;43426;43.594;24.334;2023-04-29T02:33:47;101298.03;;;4.26;94.96
57600;BME280;43426;43.594;24.334;2023-04-29T02:36:12;101278.19;;;4.18;95.49
57600;BME280;43426;43.594;24.334;2023-04-29T02:38:38;101302.66;;;4.36;95.43
57600;BME280;43426;43.594;24.334;2023-04-29T02:41:03;101314.34;;;4.46;95.29
57600;BME280;43426;43.594;24.334;2023-04-29T02:43:29;101303.78;;;4.45;95.33
57600;BME280;43426;43.594;24.334;2023-04-29T02:45:55;101300.97;;;4.35;95.43
57600;BME280;43426;43.594;24.334;2023-04-29T02:48:20;101303.28;;;4.39;95.87
57600;BME280;43426;43.594;24.334;2023-04-29T02:50:46;101292.22;;;4.44;95.34
57600;BME280;43426;43.594;24.334;2023-04-29T02:53:11;101274.13;;;4.36;95.21
57600;BME280;43426;43.594;24.334;2023-04-29T02:55:36;101295.16;;;4.52;95.00
57600;BME280;43426;43.594;24.334;2023-04-29T02:58:02;101299.53;;;4.42;95.38
57600;BME280;43426;43.594;24.334;2023-04-29T03:00:28;101314.13;;;4.49;95.63
57600;BME280;43426;43.594;24.334;2023-04-29T03:02:53;101292.47;;;4.41;95.45
57600;BME280;43426;43.594;24.334;2023-04-29T03:05:18;101287.84;;;4.43;95.84
57600;BME280;43426;43.594;24.334;2023-04-29T03:07:44;101317.50;;;4.51;94.95
57600;BME280;43426;43.594;24.334;2023-04-29T03:10:09;101326.97;;;4.44;95.58
57600;BME280;43426;43.594;24.334;2023-04-29T03:12:36;101295.72;;;4.33;95.69
57600;BME280;43426;43.594;24.334;2023-04-29T03:15:02;101296.91;;;4.29;95.95
57600;BME280;43426;43.594;24.334;2023-04-29T03:17:27;101322.13;;;4.49;95.79
57600;BME280;43426;43.594;24.334;2023-04-29T03:19:52;101326.63;;;4.49;95.99
57600;BME280;43426;43.594;24.334;2023-04-29T03:22:21;101330.28;;;4.48;96.50
57600;BME280;43426;43.594;24.334;2023-04-29T03:24:46;101334.03;;;4.56;96.51
57600;BME280;43426;43.594;24.334;2023-04-29T03:27:12;101323.13;;;4.59;96.29
57600;BME280;43426;43.594;24.334;2023-04-29T03:29:38;101329.78;;;4.54;95.76
57600;BME280;43426;43.594;24.334;2023-04-29T03:32:03;101298.19;;;4.36;96.51
57600;BME280;43426;43.594;24.334;2023-04-29T03:34:29;101333.22;;;4.67;96.78
57600;BME280;43426;43.594;24.334;2023-04-29T03:36:54;101321.22;;;4.73;96.43
57600;BME280;43426;43.594;24.334;2023-04-29T03:39:21;101330.81;;;4.75;96.14
57600;BME280;43426;43.594;24.334;2023-04-29T03:41:47;101333.38;;;4.77;96.51
57600;BME280;43426;43.594;24.334;2023-04-29T03:44:12;101319.41;;;4.85;96.77
57600;BME280;43426;43.594;24.334;2023-04-29T03:46:38;101300.06;;;4.81;96.23
57600;BME280;43426;43.594;24.334;2023-04-29T03:49:03;101291.81;;;4.95;96.02
57600;BME280;43426;43.594;24.334;2023-04-29T03:51:29;101287.69;;;4.91;95.67
57600;BME280;43426;43.594;24.334;2023-04-29T03:53:54;101326.84;;;5.15;95.75
57600;BME280;43426;43.594;24.334;2023-04-29T03:56:22;101326.84;;;5.15;96.26
57600;BME280;43426;43.594;24.334;2023-04-29T03:58:47;101325.88;;;5.16;95.67
57600;BME280;43426;43.594;24.334;2023-04-29T04:01:13;101276.13;;;4.91;95.21
57600;BME280;43426;43.594;24.334;2023-04-29T04:03:39;101329.53;;;5.26;95.01
57600;BME280;43426;43.594;24.334;2023-04-29T04:06:04;101327.22;;;5.33;94.83
57600;BME280;43426;43.594;24.334;2023-04-29T04:08:30;101331.72;;;5.33;94.81
57600;BME280;43426;43.594;24.334;2023-04-29T04:10:55;101274.34;;;5.03;94.37
57600;BME280;43426;43.594;24.334;2023-04-29T04:13:27;101314.06;;;5.30;94.82
57600;BME280;43426;43.594;24.334;2023-04-29T04:15:53;101305.06;;;5.31;95.92
57600;BME280;43426;43.594;24.334;2023-04-29T04:18:18;101326.97;;;5.48;95.65
57600;BME280;43426;43.594;24.334;2023-04-29T04:20:43;101335.31;;;5.66;94.92
57600;BME280;43426;43.594;24.334;2023-04-29T04:23:09;101333.38;;;5.79;94.92
57600;BME280;43426;43.594;24.334;2023-04-29T04:25:34;101329.44;;;5.94;94.58
57600;BME280;43426;43.594;24.334;2023-04-29T04:28:01;101320.56;;;5.83;94.99
57600;BME280;43426;43.594;24.334;2023-04-29T04:30:26;101331.47;;;6.02;95.02
57600;BME280;43426;43.594;24.334;2023-04-29T04:32:51;101333.88;;;6.17;94.64
57600;BME280;43426;43.594;24.334;2023-04-29T04:35:17;101315.47;;;6.23;93.43
57600;BME280;43426;43.594;24.334;2023-04-29T04:37:42;101328.28;;;6.41;94.08
57600;BME280;43426;43.594;24.334;2023-04-29T04:40:11;101322.09;;;6.61;93.41
57600;BME280;43426;43.594;24.334;2023-04-29T04:42:37;101320.47;;;6.70;92.62
57600;BME280;43426;43.594;24.334;2023-04-29T04:45:04;101311.94;;;6.86;91.79
57600;BME280;43426;43.594;24.334;2023-04-29T04:47:29;101310.59;;;7.02;91.29
57600;BME280;43426;43.594;24.334;2023-04-29T04:49:55;101287.56;;;6.99;91.31
57600;BME280;43426;43.594;24.334;2023-04-29T04:52:20;101313.09;;;7.14;90.77
57600;BME280;43426;43.594;24.334;2023-04-29T04:54:46;101311.16;;;7.36;90.17
57600;BME280;43426;43.594;24.334;2023-04-29T04:57:12;101313.78;;;7.57;89.22
57600;BME280;43426;43.594;24.334;2023-04-29T04:59:38;101290.22;;;7.71;88.25
57600;BME280;43426;43.594;24.334;2023-04-29T05:02:03;101315.00;;;8.13;87.62
57600;BME280;43426;43.594;24.334;2023-04-29T05:04:29;101306.22;;;8.60;87.68
57600;BME280;43426;43.594;24.334;2023-04-29T05:06:54;101272.19;;;8.79;86.01
57600;BME280;43426;43.594;24.334;2023-04-29T05:09:20;101319.00;;;9.43;83.23
57600;BME280;43426;43.594;24.334;2023-04-29T05:11:46;101299.84;;;9.46;82.65
57600;BME280;43426;43.594;24.334;2023-04-29T05:14:12;101322.63;;;9.80;81.54
57600;BME280;43426;43.594;24.334;2023-04-29T05:16:38;101325.63;;;9.95;80.50
57600;BME280;43426;43.594;24.334;2023-04-29T05:19:03;101284.72;;;9.81;79.26
57600;BME280;43426;43.594;24.334;2023-04-29T05:21:29;101318.47;;;10.21;78.65
57600;BME280;43426;43.594;24.334;2023-04-29T05:23:55;101313.63;;;10.25;77.78
57600;BME280;43426;43.594;24.334;2023-04-29T05:26:21;101311.44;;;10.38;77.85
57600;BME280;43426;43.594;24.334;2023-04-29T05:28:47;101303.50;;;10.63;75.55
57600;BME280;43426;43.594;24.334;2023-04-29T05:31:12;101321.34;;;10.82;72.69
57600;BME280;43426;43.594;24.334;2023-04-29T05:33:38;101328.34;;;10.93;71.96
57600;BME280;43426;43.594;24.334;2023-04-29T05:36:03;101296.78;;;10.94;71.00
57600;BME280;43426;43.594;24.334;2023-04-29T05:38:29;101316.44;;;11.04;70.77
57600;BME280;43426;43.594;24.334;2023-04-29T05:40:55;101319.31;;;11.02;71.49
57600;BME280;43426;43.594;24.334;2023-04-29T05:43:20;101320.84;;;11.05;70.19
57600;BME280;43426;43.594;24.334;2023-04-29T05:45:46;101316.28;;;11.05;71.00
57600;BME280;43426;43.594;24.334;2023-04-29T05:48:11;101319.25;;;10.94;70.97
57600;BME280;43426;43.594;24.334;2023-04-29T05:50:40;101320.34;;;11.10;70.78
57600;BME280;43426;43.594;24.334;2023-04-29T05:53:05;101319.69;;;11.16;70.41
57600;BME280;43426;43.594;24.334;2023-04-29T05:55:31;101324.84;;;11.27;69.00
57600;BME280;43426;43.594;24.334;2023-04-29T05:57:56;101273.44;;;11.11;69.54
57600;BME280;43426;43.594;24.334;2023-04-29T06:00:22;101310.38;;;11.45;69.13
57600;BME280;43426;43.594;24.334;2023-04-29T06:02:47;101281.91;;;11.24;70.44
57600;BME280;43426;43.594;24.334;2023-04-29T06:05:13;101303.81;;;11.47;69.87
57600;BME280;43426;43.594;24.334;2023-04-29T06:07:41;101303.03;;;11.63;68.51
57600;BME280;43426;43.594;24.334;2023-04-29T06:10:07;101312.53;;;11.92;67.87
57600;BME280;43426;43.594;24.334;2023-04-29T06:12:33;101313.31;;;12.19;66.26
57600;BME280;43426;43.594;24.334;2023-04-29T06:14:59;101316.88;;;12.44;65.99
57600;BME280;43426;43.594;24.334;2023-04-29T06:17:24;101298.06;;;12.84;65.22
57600;BME280;43426;43.594;24.334;2023-04-29T06:19:53;101289.88;;;13.00;63.16
57600;BME280;43426;43.594;24.334;2023-04-29T06:22:19;101287.59;;;13.37;63.03
57600;BME280;43426;43.594;24.334;2023-04-29T06:24:44;101312.00;;;13.68;62.04
57600;BME280;43426;43.594;24.334;2023-04-29T06:27:09;101307.88;;;13.81;61.24
57600;BME280;43426;43.594;24.334;2023-04-29T06:29:36;101308.16;;;13.86;59.61
57600;BME280;43426;43.594;24.334;2023-04-29T06:32:01;101307.16;;;13.87;60.32
57600;BME280;43426;43.594;24.334;2023-04-29T06:34:27;101307.84;;;13.89;58.67
57600;BME280;43426;43.594;24.334;2023-04-29T06:36:52;101304.34;;;14.03;58.94
57600;BME280;43426;43.594;24.334;2023-04-29T06:39:17;101307.97;;;13.64;58.45
57600;BME280;43426;43.594;24.334;2023-04-29T06:41:43;101299.00;;;13.55;58.24
57600;BME280;43426;43.594;24.334;2023-04-29T06:44:08;101300.56;;;13.50;57.96
57600;BME280;43426;43.594;24.334;2023-04-29T06:46:33;101291.13;;;13.37;58.37
57600;BME280;43426;43.594;24.334;2023-04-29T06:48:59;101309.78;;;13.32;58.12
57600;BME280;43426;43.594;24.334;2023-04-29T06:51:25;101310.44;;;13.42;59.23
57600;BME280;43426;43.594;24.334;2023-04-29T06:53:52;101303.00;;;13.36;58.98
57600;BME280;43426;43.594;24.334;2023-04-29T06:56:17;101316.38;;;13.38;59.76
57600;BME280;43426;43.594;24.334;2023-04-29T06:58:43;101278.47;;;13.21;60.68
57600;BME280;43426;43.594;24.334;2023-04-29T07:01:08;101315.63;;;13.52;60.95
57600;BME280;43426;43.594;24.334;2023-04-29T07:03:34;101315.84;;;13.42;61.18
57600;BME280;43426;43.594;24.334;2023-04-29T07:06:00;101292.75;;;13.55;61.61
57600;BME280;43426;43.594;24.334;2023-04-29T07:08:26;101292.47;;;13.73;62.26
57600;BME280;43426;43.594;24.334;2023-04-29T07:10:56;101294.00;;;13.75;62.38
57600;BME280;43426;43.594;24.334;2023-04-29T07:13:22;101300.88;;;14.09;59.86
57600;BME280;43426;43.594;24.334;2023-04-29T07:15:48;101299.03;;;14.33;58.44
57600;BME280;43426;43.594;24.334;2023-04-29T07:18:13;101298.69;;;14.74;57.11
57600;BME280;43426;43.594;24.334;2023-04-29T07:20:39;101286.81;;;15.05;57.08
57600;BME280;43426;43.594;24.334;2023-04-29T07:23:04;101292.94;;;15.59;56.16
57600;BME280;43426;43.594;24.334;2023-04-29T07:25:30;101277.75;;;16.01;54.41
57600;BME280;43426;43.594;24.334;2023-04-29T07:27:55;101299.91;;;16.63;51.87
57600;BME280;43426;43.594;24.334;2023-04-29T07:30:21;101272.81;;;16.61;51.50
57600;BME280;43426;43.594;24.334;2023-04-29T07:32:47;101287.81;;;17.00;49.95
57600;BME280;43426;43.594;24.334;2023-04-29T07:35:13;101294.78;;;17.10;49.96
57600;BME280;43426;43.594;24.334;2023-04-29T07:37:38;101278.78;;;17.35;49.92
57600;BME280;43426;43.594;24.334;2023-04-29T07:40:04;101293.72;;;17.52;48.31
57600;BME280;43426;43.594;24.334;2023-04-29T07:42:29;101261.34;;;17.36;50.29
57600;BME280;43426;43.594;24.334;2023-04-29T07:44:55;101287.88;;;17.62;50.96
57600;BME280;43426;43.594;24.334;2023-04-29T07:47:21;101286.41;;;17.60;49.54
57600;BME280;43426;43.594;24.334;2023-04-29T07:49:46;101284.72;;;17.10;51.23
57600;BME280;43426;43.594;24.334;2023-04-29T07:52:11;101273.75;;;17.45;50.61
57600;BME280;43426;43.594;24.334;2023-04-29T07:54:37;101280.47;;;17.98;49.77
57600;BME280;43426;43.594;24.334;2023-04-29T07:57:03;101266.44;;;18.28;48.53
57600;BME280;43426;43.594;24.334;2023-04-29T07:59:30;101246.66;;;18.52;48.68
57600;BME280;43426;43.594;24.334;2023-04-29T08:01:55;101270.00;;;18.88;45.85
57600;BME280;43426;43.594;24.334;2023-04-29T08:04:21;101260.91;;;18.81;48.03
57600;BME280;43426;43.594;24.334;2023-04-29T08:06:46;101242.22;;;18.78;46.41
57600;BME280;43426;43.594;24.334;2023-04-29T08:09:13;101240.97;;;18.67;46.43
57600;BME280;43426;43.594;24.334;2023-04-29T08:11:38;101252.91;;;18.86;46.43
57600;BME280;43426;43.594;24.334;2023-04-29T08:14:04;101249.03;;;19.28;45.91
57600;BME280;43426;43.594;24.334;2023-04-29T08:16:30;101239.81;;;19.15;47.17
57600;BME280;43426;43.594;24.334;2023-04-29T08:18:55;101225.94;;;19.62;42.79
57600;BME280;43426;43.594;24.334;2023-04-29T08:21:21;101243.94;;;19.83;41.37
57600;BME280;43426;43.594;24.334;2023-04-29T08:23:47;101225.25;;;20.05;41.08
57600;BME280;43426;43.594;24.334;2023-04-29T08:26:13;101219.94;;;20.11;39.59
57600;BME280;43426;43.594;24.334;2023-04-29T08:28:38;101216.34;;;19.78;37.70
57600;BME280;43426;43.594;24.334;2023-04-29T08:31:04;101220.31;;;20.14;39.18
57600;BME280;43426;43.594;24.334;2023-04-29T08:33:35;101209.72;;;19.61;38.45
57600;BME280;43426;43.594;24.334;2023-04-29T08:36:02;101240.81;;;19.34;35.57
57600;BME280;43426;43.594;24.334;2023-04-29T08:38:30;101233.16;;;19.50;34.37
57600;BME280;43426;43.594;24.334;2023-04-29T08:40:56;101219.06;;;19.46;36.90
57600;BME280;43426;43.594;24.334;2023-04-29T08:43:22;101206.50;;;19.32;34.29
57600;BME280;43426;43.594;24.334;2023-04-29T08:45:48;101231.28;;;19.82;37.25
57600;BME280;43426;43.594;24.334;2023-04-29T08:48:15;101206.97;;;20.24;35.61
57600;BME280;43426;43.594;24.334;2023-04-29T08:50:42;101227.56;;;20.78;33.80
57600;BME280;43426;43.594;24.334;2023-04-29T08:53:12;101213.44;;;20.30;34.15
57600;BME280;43426;43.594;24.334;2023-04-29T08:55:43;101218.31;;;20.03;33.10
57600;BME280;43426;43.594;24.334;2023-04-29T08:58:09;101215.09;;;19.74;32.10
57600;BME280;43426;43.594;24.334;2023-04-29T09:00:35;101190.22;;;19.82;34.26
57600;BME280;43426;43.594;24.334;2023-04-29T09:05:37;101226.44;;;20.85;33.09
57600;BME280;43426;43.594;24.334;2023-04-29T09:08:03;101216.25;;;21.41;33.07
57600;BME280;43426;43.594;24.334;2023-04-29T09:10:29;101224.00;;;22.05;30.90
57600;BME280;43426;43.594;24.334;2023-04-29T09:12:55;101200.47;;;21.98;31.04
57600;BME280;43426;43.594;24.334;2023-04-29T09:15:38;101227.41;;;21.77;28.75
57600;BME280;43426;43.594;24.334;2023-04-29T09:21:36;101195.59;;;21.57;29.88
57600;BME280;43426;43.594;24.334;2023-04-29T09:24:02;101208.25;;;21.40;28.77
57600;BME280;43426;43.594;24.334;2023-04-29T09:26:41;101208.56;;;21.50;31.90
57600;BME280;43426;43.594;24.334;2023-04-29T09:29:09;101182.78;;;21.93;29.21
57600;BME280;43426;43.594;24.334;2023-04-29T09:31:39;101202.41;;;22.09;29.09
57600;BME280;43426;43.594;24.334;2023-04-29T09:34:05;101193.50;;;21.83;29.03
57600;BME280;43426;43.594;24.334;2023-04-29T09:36:34;101131.00;;;21.67;31.02
57600;BME280;43426;43.594;24.334;2023-04-29T09:39:07;101165.13;;;22.13;30.52
57600;BME280;43426;43.594;24.334;2023-04-29T09:44:27;101185.38;;;21.46;30.89
57600;BME280;43426;43.594;24.334;2023-04-29T09:46:59;101184.22;;;21.05;31.39
57600;BME280;43426;43.594;24.334;2023-04-29T09:49:35;101174.53;;;21.02;29.50
57600;BME280;43426;43.594;24.334;2023-04-29T09:52:04;101156.16;;;21.21;31.99
57600;BME280;43426;43.594;24.334;2023-04-29T09:54:34;101149.63;;;21.65;31.97
57600;BME280;43426;43.594;24.334;2023-04-29T09:57:01;101167.38;;;22.16;30.27
57600;BME280;43426;43.594;24.334;2023-04-29T09:59:29;101131.94;;;21.60;31.79
57600;BME280;43426;43.594;24.334;2023-04-29T10:01:56;101159.50;;;21.96;30.04
57600;BME280;43426;43.594;24.334;2023-04-29T10:04:26;101132.84;;;21.97;29.91
57600;BME280;43426;43.594;24.334;2023-04-29T10:06:55;101143.34;;;22.00;30.47
57600;BME280;43426;43.594;24.334;2023-04-29T10:09:23;101134.88;;;21.89;29.49
57600;BME280;43426;43.594;24.334;2023-04-29T10:11:50;101135.25;;;22.05;30.43
57600;BME280;43426;43.594;24.334;2023-04-29T10:14:21;101128.06;;;22.63;28.44
57600;BME280;43426;43.594;24.334;2023-04-29T10:16:58;101126.19;;;23.50;27.83
57600;BME280;43426;43.594;24.334;2023-04-29T10:19:33;101134.84;;;23.88;27.56
57600;BME280;43426;43.594;24.334;2023-04-29T10:22:13;101131.91;;;23.77;25.66
57600;BME280;43426;43.594;24.334;2023-04-29T10:24:41;101129.69;;;23.91;27.92
57600;BME280;43426;43.594;24.334;2023-04-29T10:27:09;101133.34;;;24.14;27.80
57600;BME280;43426;43.594;24.334;2023-04-29T10:29:37;101134.09;;;24.09;29.04
57600;BME280;43426;43.594;24.334;2023-04-29T10:32:07;101109.94;;;24.17;28.68
57600;BME280;43426;43.594;24.334;2023-04-29T10:34:36;101133.03;;;24.33;27.13
57600;BME280;43426;43.594;24.334;2023-04-29T10:37:03;101128.91;;;24.13;25.62
57600;BME280;43426;43.594;24.334;2023-04-29T10:39:41;101116.97;;;24.07;26.83
57600;BME280;43426;43.594;24.334;2023-04-29T10:42:35;101124.47;;;24.29;25.84
57600;BME280;43426;43.594;24.334;2023-04-29T10:45:23;101128.03;;;24.91;25.96
57600;BME280;43426;43.594;24.334;2023-04-29T10:51:00;101107.38;;;23.93;28.77
57600;BME280;43426;43.594;24.334;2023-04-29T10:53:27;101086.28;;;23.36;27.45
57600;BME280;43426;43.594;24.334;2023-04-29T10:55:56;101090.38;;;23.67;27.74
57600;BME280;43426;43.594;24.334;2023-04-29T11:00:59;101093.56;;;24.10;27.59
57600;BME280;43426;43.594;24.334;2023-04-29T11:03:50;101098.94;;;24.39;28.24
57600;BME280;43426;43.594;24.334;2023-04-29T11:11:43;101104.50;;;24.83;24.67
57600;BME280;43426;43.594;24.334;2023-04-29T11:14:11;101100.88;;;25.05;26.16
57600;BME280;43426;43.594;24.334;2023-04-29T11:16:36;101093.91;;;24.75;25.36
57600;BME280;43426;43.594;24.334;2023-04-29T11:19:04;101064.88;;;23.89;24.80
57600;BME280;43426;43.594;24.334;2023-04-29T11:21:32;101094.50;;;24.38;26.96
57600;BME280;43426;43.594;24.334;2023-04-29T11:23:58;101093.44;;;24.39;25.40
57600;BME280;43426;43.594;24.334;2023-04-29T11:26:25;101078.78;;;23.82;26.43
57600;BME280;43426;43.594;24.334;2023-04-29T11:28:51;101068.75;;;23.76;26.04
57600;BME280;43426;43.594;24.334;2023-04-29T11:31:20;101086.97;;;24.11;27.46
57600;BME280;43426;43.594;24.334;2023-04-29T11:33:45;101071.59;;;24.15;25.89
57600;BME280;43426;43.594;24.334;2023-04-29T11:36:11;101091.88;;;24.26;22.48
57600;BME280;43426;43.594;24.334;2023-04-29T11:38:39;101089.13;;;24.26;27.12
57600;BME280;43426;43.594;24.334;2023-04-29T11:41:05;101064.34;;;24.53;25.44
57600;BME280;43426;43.594;24.334;2023-04-29T11:43:31;101079.72;;;24.88;26.26
57600;BME280;43426;43.594;24.334;2023-04-29T11:45:56;101072.25;;;25.43;25.88
57600;BME280;43426;43.594;24.334;2023-04-29T11:48:25;101057.56;;;25.38;23.61
57600;BME280;43426;43.594;24.334;2023-04-29T11:50:53;101076.88;;;25.32;23.16
57600;BME280;43426;43.594;24.334;2023-04-29T11:53:22;101078.66;;;24.94;23.10
57600;BME280;43426;43.594;24.334;2023-04-29T11:55:51;101067.56;;;24.89;25.79
57600;BME280;43426;43.594;24.334;2023-04-29T11:58:19;101075.03;;;24.89;25.47
57600;BME280;43426;43.594;24.334;2023-04-29T12:00:46;101058.34;;;24.56;23.35
57600;BME280;43426;43.594;24.334;2023-04-29T12:03:17;101069.59;;;24.55;24.39
57600;BME280;43426;43.594;24.334;2023-04-29T12:08:12;101059.28;;;24.62;22.62
57600;BME280;43426;43.594;24.334;2023-04-29T12:10:38;101053.03;;;24.50;23.26
57600;BME280;43426;43.594;24.334;2023-04-29T12:13:04;101049.03;;;24.40;25.46
57600;BME280;43426;43.594;24.334;2023-04-29T12:15:30;101050.75;;;24.24;25.68
57600;BME280;43426;43.594;24.334;2023-04-29T12:17:57;101052.94;;;24.22;24.10
57600;BME280;43426;43.594;24.334;2023-04-29T12:20:22;101045.81;;;23.87;24.07
57600;BME280;43426;43.594;24.334;2023-04-29T12:22:48;101048.72;;;23.80;25.55
57600;BME280;43426;43.594;24.334;2023-04-29T12:25:16;101054.31;;;23.86;26.67
57600;BME280;43426;43.594;24.334;2023-04-29T12:27:42;101047.59;;;23.59;25.17
57600;BME280;43426;43.594;24.334;2023-04-29T12:30:08;101028.53;;;22.95;23.49
57600;BME280;43426;43.594;24.334;2023-04-29T12:32:34;101023.78;;;22.61;25.73
57600;BME280;43426;43.594;24.334;2023-04-29T12:35:00;101035.22;;;22.70;26.18
57600;BME280;43426;43.594;24.334;2023-04-29T12:37:26;101040.56;;;22.77;26.75
57600;BME280;43426;43.594;24.334;2023-04-29T12:39:54;101048.34;;;22.80;24.12
57600;BME280;43426;43.594;24.334;2023-04-29T12:42:19;101038.88;;;22.47;25.84
57600;BME280;43426;43.594;24.334;2023-04-29T12:44:45;101027.69;;;22.37;25.67
57600;BME280;43426;43.594;24.334;2023-04-29T12:47:12;101046.78;;;22.32;28.49
57600;BME280;43426;43.594;24.334;2023-04-29T12:49:42;101031.97;;;22.33;27.95
57600;BME280;43426;43.594;24.334;2023-04-29T12:52:08;101015.69;;;22.43;30.02
57600;BME280;43426;43.594;24.334;2023-04-29T12:54:38;101024.59;;;22.09;29.34
57600;BME280;43426;43.594;24.334;2023-04-29T12:57:10;101036.22;;;21.88;28.77
57600;BME280;43426;43.594;24.334;2023-04-29T12:59:36;101038.38;;;21.74;27.83
57600;BME280;43426;43.594;24.334;2023-04-29T13:02:02;101030.47;;;21.89;29.01
57600;BME280;43426;43.594;24.334;2023-04-29T13:04:27;101030.59;;;21.94;28.57
57600;BME280;43426;43.594;24.334;2023-04-29T13:06:53;101018.03;;;21.75;30.17
57600;BME280;43426;43.594;24.334;2023-04-29T13:09:24;101021.53;;;21.82;30.49
57600;BME280;43426;43.594;24.334;2023-04-29T13:11:50;101018.06;;;21.63;32.26
57600;BME280;43426;43.594;24.334;2023-04-29T13:14:16;101013.97;;;21.54;31.54